Time;durP1;ratioP1;P1;durP2;ratioP2;P2;SDS_P1;SDS_P2;PMS_P1;PMS_P2;Temp;Humidity;BMP_temperature;BMP_pressure;BME280_temperature;BME280_humidity;BME280_pressure;Samples;Min_cycle;Max_cycle;Signal;HPM_P1;HPM_P2
2022/12/19 00:01:00;;;;;;;5.35;1.95;;;;;;;;;;5074628;28;20052;-79
2022/12/19 00:03:27;;;;;;;6.45;2.35;;;;;;;;;;5058353;28;20252;-79
2022/12/19 00:05:54;;;;;;;5.07;2.08;;;;;;;;;;5057067;28;20049;-79
2022/12/19 00:08:20;;;;;;;4.88;2.10;;;;;;;;;;5076142;28;20053;-79
2022/12/19 00:10:54;;;;;;;6.88;2.35;;;;;;;;;;5075532;28;20051;-79
2022/12/19 00:13:20;;;;;;;5.53;2.55;;;;;;;;;;5076407;28;20045;-79
2022/12/19 00:15:47;;;;;;;6.57;2.78;;;;;;;;;;5072691;28;20044;-78
2022/12/19 00:18:13;;;;;;;6.55;2.63;;;;;;;;;;5073577;28;20584;-77
2022/12/19 00:20:39;;;;;;;6.38;2.80;;;;;;;;;;5073061;28;20095;-79
2022/12/19 00:23:06;;;;;;;6.18;2.35;;;;;;;;;;5071849;28;20056;-78
2022/12/19 00:25:32;;;;;;;7.68;2.85;;;;;;;;;;5073548;28;20489;-78
2022/12/19 00:28:03;;;;;;;6.97;2.63;;;;;;;;;;5074301;28;20147;-79
2022/12/19 00:30:30;;;;;;;7.68;2.92;;;;;;;;;;5075606;28;20247;-79
2022/12/19 00:32:57;;;;;;;10.45;2.60;;;;;;;;;;5077605;28;20139;-79
2022/12/19 00:35:23;;;;;;;7.07;3.47;;;;;;;;;;5078253;28;20076;-79
2022/12/19 00:37:50;;;;;;;8.63;2.88;;;;;;;;;;5089357;28;20169;-79
2022/12/19 00:40:16;;;;;;;8.57;3.30;;;;;;;;;;5084008;28;20516;-79
2022/12/19 00:42:43;;;;;;;8.40;3.72;;;;;;;;;;5075269;28;20048;-79
2022/12/19 00:45:17;;;;;;;10.45;3.65;;;;;;;;;;5076163;28;20052;-78
2022/12/19 00:47:46;;;;;;;10.98;3.22;;;;;;;;;;5075296;28;20051;-79
2022/12/19 00:50:12;;;;;;;12.27;4.13;;;;;;;;;;5074564;28;20056;-78
2022/12/19 00:52:39;;;;;;;11.77;3.80;;;;;;;;;;5054940;28;20049;-78
2022/12/19 00:55:08;;;;;;;10.10;4.22;;;;;;;;;;5074706;28;20108;-79
2022/12/19 00:57:43;;;;;;;10.73;4.30;;;;;;;;;;5074089;28;20055;-79
2022/12/19 01:00:10;;;;;;;10.70;4.13;;;;;;;;;;5074975;28;20041;-78
2022/12/19 01:02:37;;;;;;;11.45;4.10;;;;;;;;;;5073605;28;20045;-78
2022/12/19 01:05:03;;;;;;;13.10;4.78;;;;;;;;;;5073349;28;20049;-79
2022/12/19 01:07:30;;;;;;;9.57;3.92;;;;;;;;;;5054994;28;20040;-79
2022/12/19 01:09:56;;;;;;;11.60;4.68;;;;;;;;;;5080804;28;20058;-79
2022/12/19 01:15:08;;;;;;;11.75;4.30;;;;;;;;;;5084142;28;20147;-79
2022/12/19 01:17:34;;;;;;;19.15;6.00;;;;;;;;;;5086453;28;20079;-79
2022/12/19 01:20:10;;;;;;;16.38;5.95;;;;;;;;;;5086922;28;20094;-79
2022/12/19 01:22:36;;;;;;;18.67;6.85;;;;;;;;;;5085630;28;20072;-78
2022/12/19 01:25:04;;;;;;;16.50;6.82;;;;;;;;;;5085678;28;20048;-79
2022/12/19 01:27:30;;;;;;;19.15;7.13;;;;;;;;;;5072311;28;20503;-78
2022/12/19 01:29:57;;;;;;;18.48;6.68;;;;;;;;;;5071243;28;20049;-79
2022/12/19 01:32:23;;;;;;;18.77;7.18;;;;;;;;;;5070662;28;20064;-79
2022/12/19 01:34:50;;;;;;;18.95;6.95;;;;;;;;;;5071659;28;20044;-79
2022/12/19 01:37:16;;;;;;;23.15;8.05;;;;;;;;;;5070997;28;20055;-78
2022/12/19 01:39:43;;;;;;;23.58;8.27;;;;;;;;;;5071333;28;20048;-79
2022/12/19 01:42:15;;;;;;;20.73;7.88;;;;;;;;;;5053827;28;20049;-78
2022/12/19 01:45:00;;;;;;;21.58;8.52;;;;;;;;;;5071214;28;20111;-79
2022/12/19 01:47:27;;;;;;;24.58;8.70;;;;;;;;;;5071448;28;20053;-78
2022/12/19 01:49:54;;;;;;;23.02;8.32;;;;;;;;;;5070649;28;20159;-78
2022/12/19 01:52:21;;;;;;;23.98;8.68;;;;;;;;;;5069196;28;20521;-77
2022/12/19 01:54:49;;;;;;;22.45;8.68;;;;;;;;;;5069270;28;20064;-80
2022/12/19 01:57:16;;;;;;;21.27;8.30;;;;;;;;;;5070591;28;20040;-78
2022/12/19 01:59:46;;;;;;;22.58;8.20;;;;;;;;;;5069867;28;20135;-78
2022/12/19 02:02:18;;;;;;;22.85;8.15;;;;;;;;;;5069721;28;20118;-78
2022/12/19 02:04:46;;;;;;;22.52;8.13;;;;;;;;;;5068232;28;20363;-79
2022/12/19 02:07:13;;;;;;;28.35;8.70;;;;;;;;;;5070082;28;20494;-79
2022/12/19 02:09:42;;;;;;;25.77;8.15;;;;;;;;;;5071006;28;20139;-78
2022/12/19 02:12:08;;;;;;;19.70;7.85;;;;;;;;;;5068990;28;20400;-78
2022/12/19 02:14:35;;;;;;;24.85;9.10;;;;;;;;;;5054064;28;20461;-78
2022/12/19 02:17:07;;;;;;;25.15;8.93;;;;;;;;;;5092173;28;20051;-79
2022/12/19 02:19:52;;;;;;;24.85;8.98;;;;;;;;;;5090697;28;20058;-78
2022/12/19 02:22:22;;;;;;;23.15;9.10;;;;;;;;;;5091066;28;20063;-78
2022/12/19 02:24:54;;;;;;;33.45;10.15;;;;;;;;;;5091122;28;20075;-80
2022/12/19 02:27:29;;;;;;;24.02;9.75;;;;;;;;;;5089933;28;20145;-79
2022/12/19 02:29:58;;;;;;;19.48;7.43;;;;;;;;;;5090346;28;20135;-78
2022/12/19 02:32:37;;;;;;;28.20;9.50;;;;;;;;;;5089884;28;20147;-78
2022/12/19 02:35:03;;;;;;;31.17;10.55;;;;;;;;;;5073031;28;20048;-78
2022/12/19 02:37:35;;;;;;;24.52;9.73;;;;;;;;;;5090180;28;20066;-78
2022/12/19 02:40:04;;;;;;;27.48;10.20;;;;;;;;;;5091534;28;20063;-78
2022/12/19 02:42:33;;;;;;;28.63;10.07;;;;;;;;;;5088790;28;20075;-78
2022/12/19 02:45:04;;;;;;;28.67;10.50;;;;;;;;;;5089243;28;20513;-78
2022/12/19 02:47:32;;;;;;;26.15;9.88;;;;;;;;;;5090517;28;20449;-77
2022/12/19 02:49:58;;;;;;;26.33;10.05;;;;;;;;;;5090972;28;20066;-79
2022/12/19 02:52:24;;;;;;;25.83;10.23;;;;;;;;;;5091685;28;20046;-78
2022/12/19 02:54:52;;;;;;;31.95;9.88;;;;;;;;;;5066257;28;20056;-78
2022/12/19 02:57:28;;;;;;;22.17;9.35;;;;;;;;;;5072323;28;20389;-78
2022/12/19 03:00:06;;;;;;;30.58;10.25;;;;;;;;;;5053635;28;20041;-79
2022/12/19 03:02:32;;;;;;;28.48;10.30;;;;;;;;;;5071283;28;20194;-78
2022/12/19 03:04:59;;;;;;;26.63;9.80;;;;;;;;;;5072142;28;20052;-78
2022/12/19 03:07:34;;;;;;;27.33;10.13;;;;;;;;;;5085159;28;20113;-78
2022/12/19 03:10:11;;;;;;;30.80;10.57;;;;;;;;;;5082886;28;20044;-78
2022/12/19 03:12:44;;;;;;;25.58;9.43;;;;;;;;;;5071854;28;20063;-78
2022/12/19 03:15:10;;;;;;;27.80;11.45;;;;;;;;;;5072445;28;20292;-78
2022/12/19 03:17:37;;;;;;;26.80;10.30;;;;;;;;;;5078278;28;20048;-78
2022/12/19 03:20:07;;;;;;;28.05;10.48;;;;;;;;;;5076817;28;20067;-79
2022/12/19 03:22:33;;;;;;;27.13;9.77;;;;;;;;;;5074503;28;20132;-78
2022/12/19 03:25:00;;;;;;;26.98;10.70;;;;;;;;;;5057121;28;20059;-78
2022/12/19 03:27:28;;;;;;;26.50;10.20;;;;;;;;;;5076509;28;20189;-79
2022/12/19 03:30:00;;;;;;;32.55;10.50;;;;;;;;;;5077751;28;20045;-80
2022/12/19 03:32:27;;;;;;;30.73;10.32;;;;;;;;;;5074769;28;20055;-78
2022/12/19 03:35:07;;;;;;;23.33;9.63;;;;;;;;;;5075284;28;20420;-79
2022/12/19 03:37:36;;;;;;;26.90;9.85;;;;;;;;;;5075413;28;20045;-80
2022/12/19 03:40:04;;;;;;;26.88;10.13;;;;;;;;;;5076000;28;20076;-79
2022/12/19 03:45:21;;;;;;;26.55;9.80;;;;;;;;;;5074660;28;20110;-79
2022/12/19 03:47:51;;;;;;;29.25;9.60;;;;;;;;;;5075966;28;20086;-79
2022/12/19 03:50:18;;;;;;;24.98;10.18;;;;;;;;;;5074830;28;20450;-79
2022/12/19 03:52:47;;;;;;;24.77;9.75;;;;;;;;;;5073950;28;20045;-79
2022/12/19 03:55:16;;;;;;;28.63;9.93;;;;;;;;;;5073629;28;20087;-78
2022/12/19 03:57:46;;;;;;;26.55;9.65;;;;;;;;;;5075916;28;20048;-78
2022/12/19 04:00:14;;;;;;;27.75;10.32;;;;;;;;;;5053811;28;20143;-77
2022/12/19 04:02:43;;;;;;;24.80;9.43;;;;;;;;;;5074250;28;20049;-78
2022/12/19 04:05:11;;;;;;;26.90;10.45;;;;;;;;;;5075241;28;20058;-78
2022/12/19 04:07:38;;;;;;;26.08;9.35;;;;;;;;;;5076371;28;20045;-78
2022/12/19 04:10:06;;;;;;;27.83;10.30;;;;;;;;;;5054315;28;20058;-77
2022/12/19 04:12:36;;;;;;;28.75;10.95;;;;;;;;;;5070813;28;20536;-78
2022/12/19 04:15:03;;;;;;;24.30;9.98;;;;;;;;;;5070042;28;20045;-77
2022/12/19 04:17:48;;;;;;;26.90;10.02;;;;;;;;;;5073746;28;20055;-78
2022/12/19 04:20:16;;;;;;;32.75;10.95;;;;;;;;;;5071882;28;20055;-78
2022/12/19 04:22:55;;;;;;;26.08;9.57;;;;;;;;;;5054507;28;20509;-78
2022/12/19 04:25:25;;;;;;;25.95;10.57;;;;;;;;;;5073650;28;20049;-78
2022/12/19 04:27:57;;;;;;;23.90;9.75;;;;;;;;;;5075312;28;20156;-79
2022/12/19 04:30:24;;;;;;;30.60;10.85;;;;;;;;;;5073848;28;20056;-79
2022/12/19 04:32:51;;;;;;;29.15;11.00;;;;;;;;;;5075426;28;20036;-78
2022/12/19 04:35:17;;;;;;;24.77;10.38;;;;;;;;;;5077047;28;20074;-77
2022/12/19 04:37:43;;;;;;;26.05;9.85;;;;;;;;;;5078222;28;20037;-78
2022/12/19 04:40:10;;;;;;;29.83;9.65;;;;;;;;;;5080240;28;20048;-79
2022/12/19 04:42:36;;;;;;;28.90;10.23;;;;;;;;;;5080552;28;20062;-79
2022/12/19 04:45:04;;;;;;;25.77;9.88;;;;;;;;;;5084722;28;20056;-77
2022/12/19 04:47:30;;;;;;;27.45;10.40;;;;;;;;;;5092742;28;20070;-77
2022/12/19 04:49:57;;;;;;;29.33;9.70;;;;;;;;;;5096336;28;20059;-76
2022/12/19 04:52:23;;;;;;;29.52;9.88;;;;;;;;;;5072552;28;20062;-77
2022/12/19 04:54:49;;;;;;;25.50;9.73;;;;;;;;;;5091636;28;20047;-77
2022/12/19 04:57:16;;;;;;;26.98;9.70;;;;;;;;;;5074541;28;20036;-78
2022/12/19 04:59:42;;;;;;;23.10;8.63;;;;;;;;;;5071702;28;20051;-77
2022/12/19 05:02:09;;;;;;;25.15;9.15;;;;;;;;;;5070096;28;20063;-77
2022/12/19 05:04:35;;;;;;;23.45;9.38;;;;;;;;;;5085827;28;20044;-78
2022/12/19 05:07:02;;;;;;;32.42;9.70;;;;;;;;;;5090846;28;20464;-77
2022/12/19 05:09:28;;;;;;;26.23;9.65;;;;;;;;;;5062205;28;20068;-76
2022/12/19 05:11:57;;;;;;;29.10;9.73;;;;;;;;;;5070036;28;20052;-78
2022/12/19 05:14:23;;;;;;;26.15;9.77;;;;;;;;;;5071728;28;20048;-78
2022/12/19 05:16:49;;;;;;;29.35;10.85;;;;;;;;;;5072403;28;20251;-79
2022/12/19 05:19:21;;;;;;;24.95;9.15;;;;;;;;;;5074230;28;20040;-79
2022/12/19 05:21:47;;;;;;;24.35;9.52;;;;;;;;;;5074450;28;20118;-80
2022/12/19 05:24:14;;;;;;;22.52;8.77;;;;;;;;;;5077831;28;20049;-81
2022/12/19 05:26:40;;;;;;;25.48;9.20;;;;;;;;;;5074870;28;20052;-79
2022/12/19 05:29:07;;;;;;;24.80;9.43;;;;;;;;;;5053758;28;20069;-81
2022/12/19 05:31:33;;;;;;;24.88;9.73;;;;;;;;;;5070969;28;20056;-80
2022/12/19 05:34:00;;;;;;;30.17;9.13;;;;;;;;;;5071855;28;20049;-78
2022/12/19 05:36:26;;;;;;;26.65;9.80;;;;;;;;;;5082569;28;20136;-79
2022/12/19 05:38:58;;;;;;;26.20;9.52;;;;;;;;;;5083277;28;20052;-78
2022/12/19 05:41:24;;;;;;;31.10;10.10;;;;;;;;;;5070563;28;20497;-78
2022/12/19 05:43:51;;;;;;;23.55;8.68;;;;;;;;;;5069208;28;20110;-78
2022/12/19 05:46:21;;;;;;;23.52;9.50;;;;;;;;;;5069771;28;20044;-80
2022/12/19 05:48:48;;;;;;;31.38;9.57;;;;;;;;;;5074241;28;20052;-79
2022/12/19 05:51:15;;;;;;;27.67;9.25;;;;;;;;;;5072969;28;20051;-79
2022/12/19 05:53:41;;;;;;;24.27;9.20;;;;;;;;;;5065891;28;20411;-79
2022/12/19 05:56:10;;;;;;;24.98;9.15;;;;;;;;;;5068407;28;20044;-79
2022/12/19 05:58:36;;;;;;;24.20;8.85;;;;;;;;;;5069361;28;20041;-80
2022/12/19 06:01:04;;;;;;;24.63;8.88;;;;;;;;;;5068369;28;20049;-78
2022/12/19 06:03:30;;;;;;;22.40;8.77;;;;;;;;;;5070069;28;20060;-81
2022/12/19 06:06:01;;;;;;;28.38;9.73;;;;;;;;;;5070070;28;20071;-79
2022/12/19 06:08:27;;;;;;;30.60;9.68;;;;;;;;;;5066855;28;20051;-78
2022/12/19 06:10:53;;;;;;;24.00;9.15;;;;;;;;;;5069127;28;20044;-78
2022/12/19 06:13:20;;;;;;;24.75;9.55;;;;;;;;;;5071422;28;20048;-79
2022/12/19 06:15:55;;;;;;;25.67;9.32;;;;;;;;;;5073541;28;20370;-79
2022/12/19 06:18:21;;;;;;;29.73;9.90;;;;;;;;;;5074807;28;20117;-81
2022/12/19 06:20:57;;;;;;;25.38;9.30;;;;;;;;;;5074434;28;20068;-79
2022/12/19 06:23:25;;;;;;;25.38;9.73;;;;;;;;;;5074081;28;20562;-80
2022/12/19 06:25:54;;;;;;;30.90;9.40;;;;;;;;;;5075208;28;20427;-79
2022/12/19 06:28:20;;;;;;;23.33;9.50;;;;;;;;;;5073364;28;20423;-79
2022/12/19 06:30:47;;;;;;;24.80;9.45;;;;;;;;;;5071115;28;20059;-79
2022/12/19 06:33:13;;;;;;;26.60;9.95;;;;;;;;;;5072374;28;20045;-81
2022/12/19 06:35:40;;;;;;;31.00;9.60;;;;;;;;;;5052118;28;20258;-79
2022/12/19 06:38:07;;;;;;;31.00;10.00;;;;;;;;;;5052485;28;20049;-78
2022/12/19 06:43:18;;;;;;;27.33;9.90;;;;;;;;;;5068390;28;20051;-78
2022/12/19 06:45:44;;;;;;;27.13;9.43;;;;;;;;;;5069923;28;20152;-79
2022/12/19 06:48:11;;;;;;;30.65;10.25;;;;;;;;;;5071032;28;20076;-79
2022/12/19 06:50:37;;;;;;;24.33;9.80;;;;;;;;;;5068703;28;20052;-79
2022/12/19 06:53:04;;;;;;;22.42;8.95;;;;;;;;;;5069827;28;20051;-78
2022/12/19 06:55:30;;;;;;;26.05;9.15;;;;;;;;;;5069713;28;20497;-79
2022/12/19 06:57:57;;;;;;;28.80;9.38;;;;;;;;;;5070173;28;20048;-78
2022/12/19 07:00:24;;;;;;;22.00;8.32;;;;;;;;;;5069391;28;20049;-79
2022/12/19 07:02:51;;;;;;;23.00;9.00;;;;;;;;;;5069594;28;20048;-78
2022/12/19 07:05:17;;;;;;;21.42;8.70;;;;;;;;;;5070585;28;20126;-79
2022/12/19 07:07:44;;;;;;;22.90;8.13;;;;;;;;;;5070797;28;20433;-79
2022/12/19 07:10:10;;;;;;;24.60;8.80;;;;;;;;;;5070115;28;20410;-80
2022/12/19 07:12:37;;;;;;;27.30;9.18;;;;;;;;;;5067815;28;20519;-80
2022/12/19 07:15:03;;;;;;;27.73;8.88;;;;;;;;;;5068574;28;20132;-79
2022/12/19 07:17:30;;;;;;;30.30;9.55;;;;;;;;;;5053621;28;20048;-79
2022/12/19 07:19:57;;;;;;;26.88;8.98;;;;;;;;;;5070683;28;20070;-79
2022/12/19 07:22:26;;;;;;;27.25;9.60;;;;;;;;;;5070366;28;20059;-78
2022/12/19 07:24:53;;;;;;;26.70;9.85;;;;;;;;;;5071006;28;20093;-79
2022/12/19 07:27:21;;;;;;;27.90;9.43;;;;;;;;;;5051188;28;20059;-78
2022/12/19 07:29:48;;;;;;;24.08;9.30;;;;;;;;;;5069891;28;20058;-80
2022/12/19 07:32:14;;;;;;;26.75;9.70;;;;;;;;;;5068915;28;20072;-77
2022/12/19 07:34:40;;;;;;;29.15;9.02;;;;;;;;;;5069472;28;20052;-79
2022/12/19 07:37:07;;;;;;;27.80;9.23;;;;;;;;;;5070958;28;20051;-79
2022/12/19 07:39:33;;;;;;;26.30;9.60;;;;;;;;;;5072362;28;20053;-79
2022/12/19 07:42:00;;;;;;;28.35;10.07;;;;;;;;;;5070960;28;20483;-79
2022/12/19 07:44:26;;;;;;;23.67;9.13;;;;;;;;;;5070458;28;20040;-79
2022/12/19 07:46:52;;;;;;;24.80;9.20;;;;;;;;;;5071539;28;20051;-79
2022/12/19 07:49:19;;;;;;;24.67;8.80;;;;;;;;;;5071454;28;20047;-79
2022/12/19 07:51:48;;;;;;;23.50;9.05;;;;;;;;;;5066950;28;20051;-79
2022/12/19 07:54:15;;;;;;;23.73;8.18;;;;;;;;;;5072538;28;20461;-79
2022/12/19 07:56:41;;;;;;;21.85;8.13;;;;;;;;;;5072907;28;20645;-79
2022/12/19 07:59:08;;;;;;;21.52;8.05;;;;;;;;;;5073507;28;20056;-77
2022/12/19 08:01:34;;;;;;;23.73;8.40;;;;;;;;;;5074910;28;20055;-79
2022/12/19 08:04:00;;;;;;;20.48;7.82;;;;;;;;;;5087388;28;20061;-79
2022/12/19 08:06:27;;;;;;;23.45;8.00;;;;;;;;;;5088633;28;20074;-79
2022/12/19 08:08:53;;;;;;;20.33;7.65;;;;;;;;;;5073815;28;20044;-79
2022/12/19 08:11:28;;;;;;;21.10;8.07;;;;;;;;;;5074536;28;20057;-78
2022/12/19 08:13:55;;;;;;;20.00;7.53;;;;;;;;;;5072401;28;20083;-79
2022/12/19 08:16:23;;;;;;;23.17;9.13;;;;;;;;;;5073304;28;20055;-79
2022/12/19 08:18:50;;;;;;;26.23;9.70;;;;;;;;;;5073012;28;20048;-79
2022/12/19 08:21:16;;;;;;;21.38;8.20;;;;;;;;;;5073455;28;20052;-80
2022/12/19 08:23:44;;;;;;;20.70;8.20;;;;;;;;;;5072617;28;20052;-79
2022/12/19 08:26:12;;;;;;;18.00;6.68;;;;;;;;;;5069805;28;20058;-78
2022/12/19 08:28:39;;;;;;;16.40;7.00;;;;;;;;;;5070992;28;20048;-79
2022/12/19 08:31:05;;;;;;;17.98;7.75;;;;;;;;;;5053260;28;20052;-78
2022/12/19 08:33:32;;;;;;;16.63;6.97;;;;;;;;;;5069199;28;20036;-79
2022/12/19 08:36:01;;;;;;;16.35;6.95;;;;;;;;;;5068270;28;20797;-79
2022/12/19 08:38:28;;;;;;;16.17;6.85;;;;;;;;;;5067145;28;20045;-77
2022/12/19 08:40:54;;;;;;;17.45;7.72;;;;;;;;;;5070046;28;20056;-77
2022/12/19 08:43:20;;;;;;;17.50;6.82;;;;;;;;;;5067348;28;20071;-77
2022/12/19 08:45:50;;;;;;;19.27;7.13;;;;;;;;;;5067477;28;20044;-77
2022/12/19 08:48:16;;;;;;;19.20;7.22;;;;;;;;;;5066218;28;20051;-78
2022/12/19 08:50:49;;;;;;;16.52;6.82;;;;;;;;;;5068150;28;20494;-78
2022/12/19 08:53:16;;;;;;;20.25;7.80;;;;;;;;;;5064746;28;20044;-78
2022/12/19 08:55:55;;;;;;;20.55;8.18;;;;;;;;;;5065935;28;20132;-78
2022/12/19 08:58:22;;;;;;;19.65;7.68;;;;;;;;;;5069546;28;20049;-77
2022/12/19 09:00:48;;;;;;;19.60;8.30;;;;;;;;;;5071387;28;20040;-78
2022/12/19 09:03:23;;;;;;;18.45;7.85;;;;;;;;;;5070846;28;20131;-78
2022/12/19 09:05:58;;;;;;;17.90;7.47;;;;;;;;;;5062882;28;20480;-77
2022/12/19 09:08:35;;;;;;;20.77;8.13;;;;;;;;;;5066094;28;20123;-77
2022/12/19 09:11:11;;;;;;;23.23;7.45;;;;;;;;;;5066581;28;20049;-77
2022/12/19 09:13:41;;;;;;;18.63;7.15;;;;;;;;;;5067008;28;20099;-78
2022/12/19 09:16:12;;;;;;;17.30;7.38;;;;;;;;;;5064829;28;20416;-77
2022/12/19 09:18:39;;;;;;;17.65;7.50;;;;;;;;;;5069871;28;20047;-78
2022/12/19 09:21:13;;;;;;;23.77;9.73;;;;;;;;;;5059866;28;20095;-77
2022/12/19 09:23:40;;;;;;;21.75;7.97;;;;;;;;;;5067846;28;20044;-77
2022/12/19 09:26:09;;;;;;;24.17;8.98;;;;;;;;;;5066637;28;20048;-78
2022/12/19 09:28:36;;;;;;;19.88;8.50;;;;;;;;;;5069559;28;20433;-77
2022/12/19 09:31:04;;;;;;;20.42;8.35;;;;;;;;;;5069080;28;20156;-77
2022/12/19 09:33:32;;;;;;;19.95;9.00;;;;;;;;;;5068326;28;20055;-78
2022/12/19 09:36:07;;;;;;;17.35;7.75;;;;;;;;;;5057116;28;20643;-77
2022/12/19 09:38:35;;;;;;;20.08;8.32;;;;;;;;;;5063692;28;20041;-77
2022/12/19 09:41:12;;;;;;;18.50;7.90;;;;;;;;;;5065719;28;20064;-79
2022/12/19 09:43:41;;;;;;;21.05;8.25;;;;;;;;;;5067505;28;20135;-77
2022/12/19 09:46:07;;;;;;;21.13;8.50;;;;;;;;;;5065785;28;20441;-77
2022/12/19 09:48:33;;;;;;;21.45;8.18;;;;;;;;;;5069086;28;20055;-78
2022/12/19 09:51:06;;;;;;;20.27;8.45;;;;;;;;;;5069924;28;20040;-78
2022/12/19 09:53:57;;;;;;;19.63;8.13;;;;;;;;;;5066374;28;20049;-79
2022/12/19 09:56:27;;;;;;;22.05;8.40;;;;;;;;;;5069670;28;20088;-80
2022/12/19 09:58:59;;;;;;;21.50;8.70;;;;;;;;;;5070018;28;20052;-76
2022/12/19 10:01:29;;;;;;;17.75;7.55;;;;;;;;;;5070912;28;20056;-78
2022/12/19 10:04:02;;;;;;;20.83;8.35;;;;;;;;;;5071546;28;20084;-78
2022/12/19 10:06:28;;;;;;;21.23;8.02;;;;;;;;;;5070875;28;20090;-78
2022/12/19 10:09:18;;;;;;;17.98;7.85;;;;;;;;;;5073120;28;20060;-79
2022/12/19 10:12:12;;;;;;;23.40;9.38;;;;;;;;;;5054605;28;20053;-77
2022/12/19 10:14:58;;;;;;;20.63;7.50;;;;;;;;;;5073527;28;20047;-77
2022/12/19 10:17:28;;;;;;;20.27;8.55;;;;;;;;;;5089984;28;20043;-77
2022/12/19 10:20:02;;;;;;;19.80;8.68;;;;;;;;;;5089773;28;20723;-77
2022/12/19 10:22:51;;;;;;;20.48;7.95;;;;;;;;;;5090357;28;20071;-77
2022/12/19 10:25:27;;;;;;;19.23;7.95;;;;;;;;;;5069073;28;20056;-79
2022/12/19 10:27:59;;;;;;;19.10;8.45;;;;;;;;;;5069172;28;20084;-78
2022/12/19 10:30:28;;;;;;;18.15;7.22;;;;;;;;;;5068328;28;20048;-79
2022/12/19 10:33:00;;;;;;;15.82;6.40;;;;;;;;;;5067117;28;20416;-78
2022/12/19 10:35:31;;;;;;;13.52;5.78;;;;;;;;;;5054640;28;20578;-77
2022/12/19 10:38:04;;;;;;;10.80;5.22;;;;;;;;;;5063458;28;20052;-78
2022/12/19 10:40:38;;;;;;;12.35;5.22;;;;;;;;;;5071757;28;20040;-78
2022/12/19 10:43:16;;;;;;;13.05;5.30;;;;;;;;;;5069565;28;20064;-78
2022/12/19 10:45:59;;;;;;;12.38;5.03;;;;;;;;;;5068472;28;20113;-79
2022/12/19 10:48:27;;;;;;;13.90;4.95;;;;;;;;;;5069907;28;20044;-78
2022/12/19 10:50:56;;;;;;;13.10;5.45;;;;;;;;;;5069536;28;20463;-79
2022/12/19 10:53:27;;;;;;;16.55;5.20;;;;;;;;;;5049688;28;20055;-78
2022/12/19 10:55:55;;;;;;;13.50;5.53;;;;;;;;;;5070565;28;20052;-79
2022/12/19 10:58:26;;;;;;;21.73;6.15;;;;;;;;;;5069334;28;20512;-78
2022/12/19 11:00:52;;;;;;;19.15;5.82;;;;;;;;;;5068518;28;20056;-78
2022/12/19 11:03:19;;;;;;;17.58;6.20;;;;;;;;;;5071910;28;20078;-79
2022/12/19 11:05:48;;;;;;;18.98;5.72;;;;;;;;;;5069946;28;20044;-80
2022/12/19 11:08:24;;;;;;;16.10;5.88;;;;;;;;;;5045704;28;20193;-76
2022/12/19 11:10:53;;;;;;;15.93;5.78;;;;;;;;;;5072120;28;20060;-79
2022/12/19 11:13:41;;;;;;;19.73;6.20;;;;;;;;;;5070094;28;20055;-79
2022/12/19 11:16:33;;;;;;;16.55;5.90;;;;;;;;;;5072238;28;20095;-79
2022/12/19 11:19:21;;;;;;;18.98;5.80;;;;;;;;;;5072970;28;20046;-79
2022/12/19 11:22:18;;;;;;;16.83;6.65;;;;;;;;;;5075310;28;20048;-77
2022/12/19 11:25:04;;;;;;;23.02;6.43;;;;;;;;;;5069879;28;20048;-79
2022/12/19 11:27:51;;;;;;;22.95;7.93;;;;;;;;;;5069941;28;20065;-79
2022/12/19 11:30:39;;;;;;;29.25;8.18;;;;;;;;;;5074358;28;20051;-79
2022/12/19 11:33:26;;;;;;;32.20;8.85;;;;;;;;;;5056120;28;20110;-79
2022/12/19 11:35:54;;;;;;;31.65;9.48;;;;;;;;;;5074524;28;20037;-79
2022/12/19 11:38:41;;;;;;;30.60;9.23;;;;;;;;;;5075236;28;20044;-79
2022/12/19 11:41:13;;;;;;;26.77;9.65;;;;;;;;;;5078374;28;20048;-79
2022/12/19 11:44:02;;;;;;;23.42;9.00;;;;;;;;;;5075448;28;20067;-78
2022/12/19 11:46:33;;;;;;;27.35;9.50;;;;;;;;;;5077552;28;20062;-78
2022/12/19 11:49:10;;;;;;;28.35;9.23;;;;;;;;;;5059440;28;20049;-77
2022/12/19 11:51:36;;;;;;;27.38;10.23;;;;;;;;;;5075645;28;20056;-78
2022/12/19 11:54:18;;;;;;;27.55;9.38;;;;;;;;;;5075002;28;20048;-78
2022/12/19 11:56:44;;;;;;;32.22;9.68;;;;;;;;;;5058496;28;20504;-77
2022/12/19 11:59:15;;;;;;;29.92;9.20;;;;;;;;;;5075452;28;20143;-80
2022/12/19 12:01:57;;;;;;;33.30;10.73;;;;;;;;;;5074729;28;20048;-79
2022/12/19 12:04:26;;;;;;;29.90;9.85;;;;;;;;;;5075367;28;20055;-79
2022/12/19 12:06:54;;;;;;;31.60;10.18;;;;;;;;;;5083866;28;20048;-79
2022/12/19 12:09:31;;;;;;;33.72;10.30;;;;;;;;;;5074012;28;20055;-80
2022/12/19 12:12:18;;;;;;;35.80;10.73;;;;;;;;;;5072470;28;20118;-76
2022/12/19 12:15:07;;;;;;;31.13;10.43;;;;;;;;;;5072532;28;20061;-78
2022/12/19 12:18:12;;;;;;;32.95;10.38;;;;;;;;;;5056693;28;20045;-79
2022/12/19 12:20:59;;;;;;;38.63;10.68;;;;;;;;;;5071492;28;20048;-78
2022/12/19 12:23:51;;;;;;;30.10;10.73;;;;;;;;;;5075069;28;20492;-80
2022/12/19 12:26:46;;;;;;;31.40;10.73;;;;;;;;;;5075713;28;20083;-79
2022/12/19 12:29:41;;;;;;;33.33;10.52;;;;;;;;;;5075561;28;20045;-78
2022/12/19 12:32:40;;;;;;;33.78;11.50;;;;;;;;;;5076599;28;20133;-78
2022/12/19 12:35:35;;;;;;;34.38;11.32;;;;;;;;;;5080189;28;20056;-79
2022/12/19 12:38:41;;;;;;;33.08;11.48;;;;;;;;;;5078448;28;20060;-79
2022/12/19 12:44:17;;;;;;;28.20;11.25;;;;;;;;;;5087768;28;20148;-78
2022/12/19 12:47:00;;;;;;;32.33;11.23;;;;;;;;;;5058259;28;20049;-79
2022/12/19 12:49:37;;;;;;;30.38;11.88;;;;;;;;;;5056174;28;20056;-78
2022/12/19 12:52:21;;;;;;;34.97;11.85;;;;;;;;;;5054460;28;20087;-79
2022/12/19 12:54:49;;;;;;;31.08;11.55;;;;;;;;;;5055216;28;20812;-78
2022/12/19 12:57:31;;;;;;;35.72;11.20;;;;;;;;;;5053068;28;20049;-79
2022/12/19 13:00:30;;;;;;;35.70;12.55;;;;;;;;;;5036359;28;20048;-79
2022/12/19 13:03:06;;;;;;;37.97;12.13;;;;;;;;;;5036519;28;20047;-78
2022/12/19 13:05:45;;;;;;;31.05;11.43;;;;;;;;;;5076326;28;20072;-78
2022/12/19 13:08:30;;;;;;;35.10;12.30;;;;;;;;;;5073631;28;20121;-79
2022/12/19 13:11:10;;;;;;;40.15;11.90;;;;;;;;;;5081265;28;20051;-78
2022/12/19 13:14:06;;;;;;;37.05;11.95;;;;;;;;;;5049993;28;20044;-78
2022/12/19 13:16:44;;;;;;;35.05;12.20;;;;;;;;;;5017227;28;20488;-77
2022/12/19 13:19:14;;;;;;;42.42;13.10;;;;;;;;;;5072237;28;20098;-79
2022/12/19 13:22:06;;;;;;;40.58;13.85;;;;;;;;;;5072150;28;20417;-77
2022/12/19 13:24:44;;;;;;;34.95;12.85;;;;;;;;;;5074156;28;20079;-79
2022/12/19 13:27:19;;;;;;;42.40;14.50;;;;;;;;;;5059779;28;20060;-80
2022/12/19 13:29:49;;;;;;;42.63;13.98;;;;;;;;;;5075099;28;20564;-79
2022/12/19 13:32:16;;;;;;;42.45;14.88;;;;;;;;;;5076899;28;20135;-79
2022/12/19 13:34:56;;;;;;;44.63;14.38;;;;;;;;;;5076382;28;20056;-78
2022/12/19 13:37:49;;;;;;;50.20;15.05;;;;;;;;;;5074208;28;20080;-79
2022/12/19 13:40:42;;;;;;;42.55;13.82;;;;;;;;;;5074962;28;20393;-79
2022/12/19 13:46:27;;;;;;;48.42;15.20;;;;;;;;;;5067018;28;20048;-78
2022/12/19 13:48:56;;;;;;;36.03;10.50;;;;;;;;;;5071722;28;20101;-78
2022/12/19 13:51:22;;;;;;;39.50;14.80;;;;;;;;;;5068151;28;20048;-79
2022/12/19 13:53:51;;;;;;;48.38;15.10;;;;;;;;;;5065932;28;20139;-77
2022/12/19 13:56:29;;;;;;;40.75;14.50;;;;;;;;;;5068438;28;20114;-76
2022/12/19 13:58:57;;;;;;;49.17;15.25;;;;;;;;;;5070611;28;20054;-78
2022/12/19 14:01:26;;;;;;;51.88;16.10;;;;;;;;;;5051803;28;20176;-78
2022/12/19 14:03:54;;;;;;;44.65;15.40;;;;;;;;;;5066007;28;20052;-79
2022/12/19 14:06:24;;;;;;;45.30;16.58;;;;;;;;;;5069295;28;20040;-78
2022/12/19 14:08:54;;;;;;;49.97;15.88;;;;;;;;;;5068180;28;20060;-79
2022/12/19 14:11:42;;;;;;;52.53;16.40;;;;;;;;;;5070965;28;20508;-78
2022/12/19 14:17:28;;;;;;;45.78;15.18;;;;;;;;;;5068644;28;20051;-78
2022/12/19 14:19:54;;;;;;;57.63;16.38;;;;;;;;;;5071038;28;20203;-78
2022/12/19 14:22:41;;;;;;;49.28;15.80;;;;;;;;;;5068226;28;20397;-79
2022/12/19 14:25:08;;;;;;;51.67;16.10;;;;;;;;;;5069159;28;20048;-77
2022/12/19 14:27:57;;;;;;;50.88;15.55;;;;;;;;;;5069112;28;20078;-79
2022/12/19 14:30:46;;;;;;;48.70;16.08;;;;;;;;;;5054789;28;20059;-79
2022/12/19 14:33:16;;;;;;;41.28;15.82;;;;;;;;;;5050793;28;20044;-77
2022/12/19 14:36:03;;;;;;;47.30;15.35;;;;;;;;;;5069585;28;20048;-78
2022/12/19 14:38:38;;;;;;;;;;;;;;;;;;5053684;28;20044;-78
2022/12/19 14:43:37;;;;;;;45.97;15.02;;;;;;;;;;5070020;28;19920;-75
2022/12/19 14:44:12;;;;;;;50.53;15.20;;;;;;;;;;5080809;28;20072;-78
2022/12/19 14:47:04;;;;;;;41.42;14.82;;;;;;;;;;5090020;28;20051;-78
2022/12/19 14:49:51;;;;;;;43.70;15.32;;;;;;;;;;5080543;28;20056;-78
2022/12/19 14:52:39;;;;;;;48.38;16.35;;;;;;;;;;5071198;28;20048;-78
2022/12/19 14:55:28;;;;;;;47.65;16.15;;;;;;;;;;5071133;28;20055;-77
2022/12/19 14:58:20;;;;;;;46.08;15.52;;;;;;;;;;5074750;28;20056;-78
2022/12/19 15:01:23;;;;;;;47.25;15.93;;;;;;;;;;5073058;28;20045;-78
2022/12/19 15:03:55;;;;;;;51.38;16.38;;;;;;;;;;5070338;28;20051;-78
2022/12/19 15:06:43;;;;;;;55.92;17.30;;;;;;;;;;5066275;28;20479;-77
2022/12/19 15:09:30;;;;;;;45.08;16.50;;;;;;;;;;5058589;28;20178;-77
2022/12/19 15:15:51;;;;;;;47.45;15.98;;;;;;;;;;5067112;28;20048;-78